Time;durP1;ratioP1;P1;durP2;ratioP2;P2;SDS_P1;SDS_P2;PMS_P1;PMS_P2;Temp;Humidity;BMP_temperature;BMP_pressure;BME280_temperature;BME280_humidity;BME280_pressure;Samples;Min_cycle;Max_cycle;Signal;HPM_P1;HPM_P2
2023/09/07 00:00:18;;;;;;;;;9.75;8.75;;;;;28.17;34.03;101086.69;5081895;27;45174;-65
2023/09/07 00:02:43;;;;;;;;;7.50;7.50;;;;;28.13;34.25;101079.84;5081780;27;46195;-65
2023/09/07 00:05:09;;;;;;;;;8.50;8.50;;;;;28.12;33.94;101079.97;5081714;27;45145;-65
2023/09/07 00:07:35;;;;;;;;;10.00;7.25;;;;;28.10;34.47;101082.81;5080458;28;45197;-65
2023/09/07 00:10:01;;;;;;;;;8.75;8.00;;;;;28.08;33.99;101076.69;5080196;28;45434;-65
2023/09/07 00:12:26;;;;;;;;;9.25;8.00;;;;;28.04;33.94;101083.31;5081380;27;45301;-65
2023/09/07 00:14:54;;;;;;;;;8.50;8.25;;;;;28.02;34.26;101075.28;5081425;27;45267;-65
2023/09/07 00:17:19;;;;;;;;;8.50;8.50;;;;;27.98;34.49;101081.94;5114301;27;45343;-65
2023/09/07 00:19:47;;;;;;;;;8.50;8.00;;;;;27.97;34.63;101074.81;5081735;27;45364;-65
2023/09/07 00:22:12;;;;;;;;;10.00;9.00;;;;;27.95;34.17;101070.53;5081348;27;46106;-65
2023/09/07 00:24:37;;;;;;;;;7.25;7.25;;;;;27.90;34.79;101068.25;5081833;27;45177;-65
2023/09/07 00:27:05;;;;;;;;;10.25;10.00;;;;;27.87;34.38;101061.25;5113789;27;46503;-65
2023/09/07 00:29:31;;;;;;;;;8.00;8.00;;;;;27.85;34.14;101065.06;5081533;27;45457;-65
2023/09/07 00:31:56;;;;;;;;;8.00;7.50;;;;;27.81;34.97;101056.34;5081173;28;45344;-65
2023/09/07 00:34:21;;;;;;;;;8.00;8.00;;;;;27.80;34.35;101062.75;5081197;27;45213;-65
2023/09/07 00:36:47;;;;;;;;;8.75;8.00;;;;;27.78;34.46;101069.25;5081439;27;45279;-65
2023/09/07 00:39:12;;;;;;;;;9.50;9.00;;;;;27.74;34.72;101060.53;5081441;28;45323;-65
2023/09/07 00:41:38;;;;;;;;;9.75;8.00;;;;;27.68;34.44;101048.38;5080648;27;46042;-65
2023/09/07 00:44:03;;;;;;;;;9.75;9.25;;;;;27.67;34.83;101051.22;5081001;28;45386;-65
2023/09/07 00:46:28;;;;;;;;;8.25;8.25;;;;;27.65;34.95;101062.16;5081100;27;45383;-65
2023/09/07 00:48:56;;;;;;;;;8.50;8.25;;;;;27.62;34.48;101065.09;5081040;27;45524;-65
2023/09/07 00:51:22;;;;;;;;;8.75;8.00;;;;;27.60;34.72;101067.06;5081091;27;45935;-65
2023/09/07 00:53:49;;;;;;;;;6.25;6.25;;;;;27.58;34.88;101063.63;5079358;28;45212;-65
2023/09/07 00:56:14;;;;;;;;;7.00;7.00;;;;;27.53;34.71;101053.22;5079501;28;45336;-65
2023/09/07 00:58:39;;;;;;;;;8.00;8.00;;;;;27.50;34.90;101052.63;5096418;27;45481;-65
2023/09/07 01:01:05;;;;;;;;;11.50;9.50;;;;;27.46;35.12;101054.69;5081009;27;46238;-65
2023/09/07 01:03:30;;;;;;;;;8.25;7.25;;;;;27.44;34.44;101066.59;5079512;28;45275;-65
2023/09/07 01:06:07;;;;;;;;;7.00;7.00;;;;;27.35;35.25;101058.22;5113893;27;45168;-65
2023/09/07 01:08:38;;;;;;;;;8.75;8.25;;;;;27.29;34.83;101069.50;5080542;28;45367;-65
2023/09/07 01:11:14;;;;;;;;;6.00;6.00;;;;;27.23;35.57;101060.06;5080454;27;45382;-65
2023/09/07 01:13:40;;;;;;;;;9.50;8.25;;;;;27.16;35.02;101058.00;5080557;27;45211;-65
2023/09/07 01:16:06;;;;;;;;;7.75;7.75;;;;;27.12;35.26;101053.81;5080641;27;45338;-65
2023/09/07 01:18:32;;;;;;;;;8.75;8.75;;;;;27.07;35.56;101051.50;5096279;27;45260;-65
2023/09/07 01:21:00;;;;;;;;;8.25;8.25;;;;;27.05;35.44;101054.28;5080346;27;46313;-65
2023/09/07 01:23:25;;;;;;;;;8.00;6.00;;;;;27.03;35.57;101058.09;5080427;28;45264;-66
2023/09/07 01:25:53;;;;;;;;;10.00;8.75;;;;;26.98;35.20;101052.22;5079457;27;45323;-65
2023/09/07 01:28:20;;;;;;;;;6.25;6.00;;;;;27.00;35.15;101050.25;5080455;27;45244;-65
2023/09/07 01:30:46;;;;;;;;;6.75;6.75;;;;;26.98;35.41;101054.91;5080058;27;45381;-65
2023/09/07 01:33:12;;;;;;;;;6.25;6.00;;;;;26.95;35.35;101049.75;5080284;28;45582;-65
2023/09/07 01:35:38;;;;;;;;;10.50;7.50;;;;;26.92;35.64;101048.16;5080539;27;45547;-65
2023/09/07 01:38:04;;;;;;;;;10.50;8.50;;;;;26.87;35.62;101048.53;5080357;27;45489;-65
2023/09/07 01:40:29;;;;;;;;;6.25;6.25;;;;;26.85;35.35;101050.47;5079719;27;47760;-65
2023/09/07 01:42:54;;;;;;;;;4.00;4.00;;;;;26.80;35.34;101055.38;5079925;28;51986;-65
2023/09/07 01:45:20;;;;;;;;;6.25;6.00;;;;;26.75;35.46;101061.13;5080407;27;45404;-65
2023/09/07 01:47:45;;;;;;;;;5.25;5.25;;;;;26.70;36.03;101059.72;5080088;27;45405;-66
2023/09/07 01:50:11;;;;;;;;;10.00;7.00;;;;;26.66;35.64;101047.47;5079973;28;53986;-65
2023/09/07 01:52:36;;;;;;;;;9.25;7.50;;;;;26.60;35.87;101052.38;5080266;28;45424;-65
2023/09/07 01:55:01;;;;;;;;;9.00;8.25;;;;;26.56;35.84;101048.19;5079775;27;45412;-65
2023/09/07 01:57:27;;;;;;;;;9.50;7.75;;;;;26.55;36.23;101049.19;5078696;28;45547;-65
2023/09/07 01:59:52;;;;;;;;;8.00;8.00;;;;;26.52;36.08;101049.41;5080182;27;45586;-65
2023/09/07 02:02:17;;;;;;;;;8.25;7.00;;;;;26.50;35.94;101045.94;5079851;27;45263;-65
2023/09/07 02:04:45;;;;;;;;;7.50;7.00;;;;;26.50;36.01;101045.94;5080310;27;45258;-65
2023/09/07 02:07:11;;;;;;;;;6.75;6.75;;;;;26.48;36.41;101047.94;5079812;27;45415;-65
2023/09/07 02:09:36;;;;;;;;;6.25;6.25;;;;;26.41;35.94;101035.91;5079788;28;46207;-66
2023/09/07 02:12:03;;;;;;;;;6.25;5.75;;;;;26.44;36.14;101057.22;5079542;27;45302;-65
2023/09/07 02:14:29;;;;;;;;;5.25;5.25;;;;;26.42;35.80;101053.78;5080128;27;45497;-65
2023/09/07 02:16:54;;;;;;;;;6.25;6.25;;;;;26.41;35.94;101046.66;5079584;27;45893;-65
2023/09/07 02:19:22;;;;;;;;;7.75;7.75;;;;;26.38;36.08;101049.63;5112595;27;45916;-65
2023/09/07 02:21:47;;;;;;;;;6.75;6.75;;;;;26.37;36.60;101046.03;5112699;27;45330;-65
2023/09/07 02:24:13;;;;;;;;;7.25;6.50;;;;;26.37;35.85;101046.03;5078434;28;45277;-65
2023/09/07 02:26:43;;;;;;;;;7.00;6.75;;;;;26.34;36.61;101040.03;5079490;27;45170;-65
2023/09/07 02:29:09;;;;;;;;;6.00;6.00;;;;;26.31;36.53;101041.13;5079432;27;46214;-65
2023/09/07 02:31:34;;;;;;;;;9.25;9.00;;;;;26.28;35.97;101035.97;5079503;28;45371;-65
2023/09/07 02:33:59;;;;;;;;;7.25;7.00;;;;;26.26;36.68;101040.63;5079700;28;45310;-65
2023/09/07 02:36:24;;;;;;;;;11.00;7.75;;;;;26.20;36.57;101039.25;5079548;27;45291;-65
2023/09/07 02:38:50;;;;;;;;;7.00;7.00;;;;;26.15;36.22;101033.38;5081167;27;45306;-67
2023/09/07 02:41:16;;;;;;;;;10.25;7.75;;;;;26.13;36.51;101034.47;5082737;27;45313;-65
2023/09/07 02:43:41;;;;;;;;;6.50;6.50;;;;;26.09;36.69;101037.38;5083245;28;45330;-65
2023/09/07 02:46:06;;;;;;;;;7.00;6.50;;;;;26.05;36.52;101041.28;5082714;27;45547;-65
2023/09/07 02:48:32;;;;;;;;;7.25;7.25;;;;;26.01;36.60;101041.56;5081507;28;46052;-65
2023/09/07 02:50:58;;;;;;;;;9.50;8.25;;;;;25.91;37.13;101044.97;5115751;27;45237;-65
2023/09/07 02:53:23;;;;;;;;;7.00;7.00;;;;;25.88;36.43;101047.88;5083247;27;45275;-65
2023/09/07 02:55:49;;;;;;;;;6.50;6.50;;;;;25.80;37.26;101044.91;5082391;28;45240;-65
2023/09/07 02:58:14;;;;;;;;;6.75;4.50;;;;;25.72;36.70;101040.09;5082689;27;46266;-66
2023/09/07 03:00:47;;;;;;;;;7.00;7.00;;;;;25.69;36.91;101037.63;5082749;27;45216;-65
2023/09/07 03:03:13;;;;;;;;;8.25;8.25;;;;;25.68;37.16;101038.56;5081528;28;45247;-65
2023/09/07 03:05:40;;;;;;;;;7.75;7.75;;;;;25.66;36.85;101039.66;5082598;27;45239;-65
2023/09/07 03:08:06;;;;;;;;;7.25;7.25;;;;;25.61;36.59;101035.50;5081109;27;47216;-65
2023/09/07 03:10:32;;;;;;;;;8.00;8.00;;;;;25.65;36.76;101038.81;5082411;28;45332;-65
2023/09/07 03:12:57;;;;;;;;;7.50;7.50;;;;;25.62;37.07;101037.22;5082592;27;45416;-65
2023/09/07 03:15:23;;;;;;;;;6.75;6.75;;;;;25.62;36.82;101042.59;5081335;28;45367;-65
2023/09/07 03:17:48;;;;;;;;;7.00;7.00;;;;;25.58;37.01;101029.47;5082449;27;46005;-65
2023/09/07 03:20:14;;;;;;;;;9.25;8.00;;;;;25.56;36.95;101036.78;5082687;28;45369;-65
2023/09/07 03:22:43;;;;;;;;;7.25;7.25;;;;;25.55;36.95;101032.41;5082415;27;45468;-65
2023/09/07 03:25:09;;;;;;;;;28.75;26.25;;;;;25.53;37.42;101042.41;5081716;27;45486;-65
2023/09/07 03:27:35;;;;;;;;;9.00;9.00;;;;;25.50;36.98;101037.22;5115070;27;46081;-65
2023/09/07 03:30:01;;;;;;;;;9.75;8.00;;;;;25.48;37.08;101040.03;5080591;28;45440;-65
2023/09/07 03:32:31;;;;;;;;;7.75;7.75;;;;;25.46;37.27;101034.78;5082163;28;45241;-65
2023/09/07 03:34:57;;;;;;;;;8.00;8.00;;;;;25.45;37.05;101033.06;5082170;28;45537;-65
2023/09/07 03:37:22;;;;;;;;;10.25;8.25;;;;;25.43;37.09;101026.06;5082006;27;46306;-65
2023/09/07 03:39:47;;;;;;;;;9.50;7.00;;;;;25.43;37.04;101029.63;5081839;27;45361;-65
2023/09/07 03:42:13;;;;;;;;;7.75;7.75;;;;;25.42;37.09;101035.09;5082177;27;45170;-65
2023/09/07 03:44:39;;;;;;;;;7.50;7.50;;;;;25.40;37.24;101040.59;5082279;28;45222;-65
2023/09/07 03:47:05;;;;;;;;;4.00;3.25;;;;;25.37;37.48;101030.06;5081982;27;46162;-65
2023/09/07 03:49:30;;;;;;;;;8.25;8.25;;;;;25.40;37.26;101037.91;5081471;27;45291;-65
2023/09/07 03:51:55;;;;;;;;;10.50;8.25;;;;;25.41;37.36;101046.84;5081813;27;45469;-65
2023/09/07 03:54:21;;;;;;;;;9.00;9.00;;;;;25.40;37.77;101050.50;5081958;27;45189;-65
2023/09/07 03:56:46;;;;;;;;;9.75;7.75;;;;;25.40;37.22;101050.50;5081283;27;45436;-65
2023/09/07 03:59:11;;;;;;;;;11.75;10.25;;;;;25.38;37.86;101055.13;5114476;27;54229;-65
2023/09/07 04:01:37;;;;;;;;;8.25;6.75;;;;;25.36;37.78;101055.25;5080587;28;45355;-65
2023/09/07 04:04:02;;;;;;;;;4.25;2.75;;;;;25.36;37.69;101054.34;5080437;28;50564;-65
2023/09/07 04:06:28;;;;;;;;;10.25;10.25;;;;;25.35;37.76;101049.94;5081474;28;46604;-65
2023/09/07 04:08:53;;;;;;;;;10.50;9.75;;;;;25.34;37.51;101050.91;5081986;27;45448;-65
2023/09/07 04:11:18;;;;;;;;;9.75;9.75;;;;;25.34;37.50;101045.53;5081310;27;45382;-65
2023/09/07 04:13:43;;;;;;;;;11.00;9.75;;;;;25.31;37.66;101047.47;5081593;28;45822;-65
2023/09/07 04:16:09;;;;;;;;;10.25;9.50;;;;;25.30;37.94;101053.81;5081485;27;45405;-65
2023/09/07 04:18:35;;;;;;;;;11.25;10.75;;;;;25.31;37.80;101046.63;5067025;28;45615;-65
2023/09/07 04:21:07;;;;;;;;;8.00;7.00;;;;;25.28;37.93;101050.38;5114705;27;45469;-65
2023/09/07 04:23:35;;;;;;;;;6.00;6.00;;;;;25.26;37.54;101052.31;5080229;28;45465;-65
2023/09/07 04:26:10;;;;;;;;;8.75;7.75;;;;;25.27;37.96;101043.28;5080809;27;45435;-65
2023/09/07 04:28:37;;;;;;;;;9.00;8.75;;;;;25.26;38.05;101040.72;5081137;27;45412;-65
2023/09/07 04:31:03;;;;;;;;;10.00;10.00;;;;;25.25;37.98;101039.84;5080077;28;46389;-65
2023/09/07 04:33:33;;;;;;;;;8.00;8.00;;;;;25.22;37.70;101037.38;5097057;27;45386;-65
2023/09/07 04:36:11;;;;;;;;;10.75;9.75;;;;;25.19;37.96;101029.50;5080989;27;45479;-65
2023/09/07 04:38:37;;;;;;;;;9.75;9.00;;;;;25.18;37.79;101029.63;5081172;28;45249;-65
2023/09/07 04:41:07;;;;;;;;;12.00;9.00;;;;;25.19;37.98;101034.91;5080702;27;45294;-65
2023/09/07 04:43:33;;;;;;;;;9.50;9.25;;;;;25.16;38.37;101032.44;5081327;27;45371;-65
2023/09/07 04:45:58;;;;;;;;;13.50;10.75;;;;;25.13;38.40;101032.63;5080758;27;46304;-66
2023/09/07 04:48:24;;;;;;;;;7.00;6.25;;;;;25.12;37.83;101037.16;5081051;27;45369;-66
2023/09/07 04:50:57;;;;;;;;;12.75;10.25;;;;;25.09;38.35;101039.22;5080962;27;45488;-66
2023/09/07 04:53:23;;;;;;;;;17.50;17.00;;;;;25.09;38.30;101041.91;5081002;27;45501;-66
2023/09/07 04:55:48;;;;;;;;;60.25;48.00;;;;;25.02;38.52;101037.91;5080355;27;45421;-66
2023/09/07 04:58:13;;;;;;;;;9.00;8.25;;;;;25.05;38.07;101045.78;5080584;28;48535;-66
2023/09/07 05:00:38;;;;;;;;;11.00;9.75;;;;;25.03;38.32;101051.28;5079868;28;48923;-66
2023/09/07 05:03:04;;;;;;;;;11.00;10.00;;;;;25.02;38.54;101048.69;5080351;27;50632;-66
2023/09/07 05:05:29;;;;;;;;;12.00;9.25;;;;;24.96;38.15;101050.81;5080413;27;46285;-67
2023/09/07 05:07:54;;;;;;;;;11.00;10.00;;;;;24.95;38.57;101051.78;5080864;27;45458;-64
2023/09/07 05:10:20;;;;;;;;;11.75;10.75;;;;;24.96;38.43;101052.66;5079064;28;45819;-63
2023/09/07 05:12:45;;;;;;;;;11.25;11.00;;;;;24.95;38.71;101059.00;5080840;27;45436;-63
2023/09/07 05:15:10;;;;;;;;;9.75;8.25;;;;;24.89;38.78;101046.88;5080515;27;45496;-64
2023/09/07 05:17:36;;;;;;;;;11.25;11.25;;;;;24.87;38.55;101048.81;5080519;28;45342;-62
2023/09/07 05:20:02;;;;;;;;;11.25;10.75;;;;;24.85;38.31;101061.47;5079255;28;45394;-63
2023/09/07 05:22:27;;;;;;;;;14.25;12.75;;;;;24.84;38.69;101051.69;5079181;28;45537;-63
2023/09/07 05:24:52;;;;;;;;;12.25;10.25;;;;;24.81;38.66;101059.97;5079818;27;45368;-62
2023/09/07 05:27:18;;;;;;;;;17.50;17.50;;;;;24.82;39.02;101064.38;5080577;28;45339;-64
2023/09/07 05:29:43;;;;;;;;;31.50;27.00;;;;;24.80;38.43;101058.25;5078465;28;49924;-62
2023/09/07 05:32:10;;;;;;;;;61.25;49.00;;;;;24.79;38.96;101067.28;5080157;28;45466;-63
2023/09/07 05:34:35;;;;;;;;;49.75;41.75;;;;;24.77;38.83;101062.00;5080259;27;45304;-62
2023/09/07 05:37:00;;;;;;;;;12.50;10.75;;;;;24.77;38.93;101063.84;5080248;27;45337;-62
2023/09/07 05:39:25;;;;;;;;;6.00;6.00;;;;;24.78;38.72;101068.22;5080062;28;48754;-63
2023/09/07 05:41:51;;;;;;;;;15.75;11.75;;;;;24.77;38.97;101069.22;5079628;28;54305;-66
2023/09/07 05:44:16;;;;;;;;;15.25;13.50;;;;;24.76;38.71;101067.50;5112855;27;45345;-67
2023/09/07 05:46:41;;;;;;;;;11.00;11.00;;;;;24.76;38.69;101073.72;5112190;27;45423;-66
2023/09/07 05:49:07;;;;;;;;;12.25;11.25;;;;;24.75;39.15;101074.69;5079551;27;45295;-64
2023/09/07 05:51:32;;;;;;;;;12.00;12.00;;;;;24.76;39.01;101076.41;5080219;27;45612;-64
2023/09/07 05:53:58;;;;;;;;;11.75;10.75;;;;;24.74;38.96;101081.03;5079807;27;45219;-65
2023/09/07 05:56:23;;;;;;;;;16.00;12.75;;;;;24.75;39.34;101082.75;5072464;27;51594;-64
2023/09/07 05:58:48;;;;;;;;;11.75;10.25;;;;;24.75;39.27;101089.94;5076424;28;45568;-65
2023/09/07 06:01:14;;;;;;;;;11.25;10.50;;;;;24.72;38.82;101082.97;5079228;28;45508;-65
2023/09/07 06:03:39;;;;;;;;;9.00;8.25;;;;;24.73;39.32;101083.81;5079678;27;45347;-65
2023/09/07 06:06:04;;;;;;;;;13.25;12.00;;;;;24.71;39.26;101080.38;5077902;28;45495;-62
2023/09/07 06:08:30;;;;;;;;;15.00;11.50;;;;;24.72;39.24;101088.34;5079903;27;45333;-65
2023/09/07 06:10:55;;;;;;;;;17.50;17.50;;;;;24.72;39.10;101093.72;5078434;27;45512;-63
2023/09/07 06:13:20;;;;;;;;;10.00;10.00;;;;;24.69;39.35;101087.69;5077151;27;50596;-64
2023/09/07 06:15:46;;;;;;;;;11.00;9.50;;;;;24.69;39.38;101082.31;5082400;28;45508;-63
2023/09/07 06:18:11;;;;;;;;;11.75;11.75;;;;;24.71;39.14;101085.75;5083346;28;45307;-63
2023/09/07 06:20:37;;;;;;;;;12.25;12.00;;;;;24.70;38.78;101087.56;5082957;28;45248;-64
2023/09/07 06:23:02;;;;;;;;;12.75;11.00;;;;;24.71;39.15;101085.75;5081498;28;46795;-65
2023/09/07 06:25:27;;;;;;;;;11.75;11.25;;;;;24.69;39.28;101087.69;5082603;27;45412;-64
2023/09/07 06:27:53;;;;;;;;;14.25;12.50;;;;;24.68;39.07;101086.84;5082859;28;45311;-66
2023/09/07 06:30:19;;;;;;;;;10.00;10.00;;;;;24.66;39.03;101086.91;5079995;28;45481;-65
2023/09/07 06:32:44;;;;;;;;;11.75;9.25;;;;;24.70;39.21;101098.31;5081541;27;46848;-63
2023/09/07 06:35:10;;;;;;;;;12.75;10.25;;;;;24.67;39.08;101091.31;5081241;27;45485;-65
2023/09/07 06:37:36;;;;;;;;;11.75;11.00;;;;;24.69;39.51;101087.69;5083103;28;45451;-65
2023/09/07 06:40:03;;;;;;;;;11.25;11.00;;;;;24.71;39.04;101094.66;5082225;28;45299;-65
2023/09/07 06:42:30;;;;;;;;;13.75;11.50;;;;;24.71;39.37;101085.75;5082546;28;46495;-64
2023/09/07 06:44:56;;;;;;;;;9.00;9.00;;;;;24.66;39.60;101078.84;5081130;27;45554;-64
2023/09/07 06:47:21;;;;;;;;;9.75;9.00;;;;;24.71;39.52;101086.59;5082610;28;45702;-63
2023/09/07 06:49:46;;;;;;;;;12.50;11.25;;;;;24.73;39.42;101095.44;5082492;27;45343;-64
2023/09/07 06:52:12;;;;;;;;;13.50;12.25;;;;;24.75;39.39;101100.69;5082581;28;45342;-65
2023/09/07 06:54:38;;;;;;;;;11.00;11.00;;;;;24.75;39.75;101098.00;5080913;28;45438;-65
2023/09/07 06:57:07;;;;;;;;;12.75;11.75;;;;;24.77;39.43;101104.16;5080727;27;45305;-64
2023/09/07 06:59:32;;;;;;;;;13.00;13.00;;;;;24.78;39.09;101098.66;5082469;28;45575;-66
2023/09/07 07:01:59;;;;;;;;;12.00;10.25;;;;;24.77;39.44;101098.78;5082069;28;53351;-64
2023/09/07 07:04:25;;;;;;;;;13.75;12.00;;;;;24.76;39.29;101095.22;5082039;27;45474;-64
2023/09/07 07:06:50;;;;;;;;;10.00;10.00;;;;;24.80;39.46;101102.13;5082286;27;45260;-65
2023/09/07 07:09:15;;;;;;;;;16.50;11.75;;;;;24.83;39.79;101104.59;5082274;27;45264;-63
2023/09/07 07:11:42;;;;;;;;;13.75;12.00;;;;;24.82;39.34;101099.31;5081882;27;45363;-64
2023/09/07 07:14:08;;;;;;;;;12.75;11.75;;;;;24.86;39.60;101100.81;5082133;27;45347;-65
2023/09/07 07:16:34;;;;;;;;;13.50;11.75;;;;;24.87;39.05;101091.78;5082249;27;45330;-65
2023/09/07 07:18:59;;;;;;;;;13.25;11.75;;;;;24.87;39.82;101097.16;5081986;27;45502;-66
2023/09/07 07:21:25;;;;;;;;;9.00;9.00;;;;;24.91;39.63;101100.50;5082512;27;46194;-65
2023/09/07 07:23:50;;;;;;;;;16.25;14.00;;;;;24.92;39.21;101097.72;5081119;27;45227;-65
2023/09/07 07:26:15;;;;;;;;;13.00;11.25;;;;;24.93;39.21;101098.56;5081632;27;45398;-65
2023/09/07 07:28:41;;;;;;;;;14.50;13.00;;;;;24.95;40.00;101094.78;5081647;27;45473;-65
2023/09/07 07:31:09;;;;;;;;;14.00;13.00;;;;;24.96;39.69;101093.84;5081668;28;45378;-62
2023/09/07 07:33:34;;;;;;;;;13.00;10.75;;;;;24.99;39.33;101098.13;5081695;27;45330;-62
2023/09/07 07:36:00;;;;;;;;;10.75;9.75;;;;;24.98;39.86;101093.72;5082196;27;45369;-62
2023/09/07 07:38:25;;;;;;;;;12.25;12.25;;;;;25.04;39.40;101097.81;5080302;28;53061;-62
2023/09/07 07:40:52;;;;;;;;;11.75;11.00;;;;;25.03;39.60;101090.72;5081541;27;47116;-62
2023/09/07 07:43:18;;;;;;;;;11.75;10.75;;;;;25.07;39.39;101098.47;5081032;28;45422;-61
2023/09/07 07:45:43;;;;;;;;;12.00;12.00;;;;;25.06;39.78;101096.75;5082069;27;45397;-62
2023/09/07 07:48:08;;;;;;;;;15.00;9.75;;;;;25.10;39.47;101100.09;5081651;28;45220;-61
2023/09/07 07:50:40;;;;;;;;;11.00;10.25;;;;;25.12;39.35;101101.69;5082098;28;45258;-62
2023/09/07 07:53:06;;;;;;;;;11.00;9.25;;;;;25.13;39.52;101094.47;5081578;28;45389;-62
2023/09/07 07:55:38;;;;;;;;;12.25;11.75;;;;;25.15;39.76;101101.47;5081628;27;45342;-62
2023/09/07 07:58:08;;;;;;;;;14.25;11.50;;;;;25.17;39.74;101097.81;5080208;28;45418;-62
2023/09/07 08:00:35;;;;;;;;;9.00;8.25;;;;;25.20;39.29;101103.00;5080336;28;46046;-62
2023/09/07 08:03:02;;;;;;;;;12.25;12.25;;;;;25.22;39.80;101096.53;5081419;27;45264;-59
2023/09/07 08:05:28;;;;;;;;;12.25;9.75;;;;;25.24;39.48;101099.13;5081476;27;45461;-62
2023/09/07 08:07:53;;;;;;;;;12.25;11.75;;;;;25.27;39.70;101099.75;5080275;28;45318;-62
2023/09/07 08:10:19;;;;;;;;;14.00;13.00;;;;;25.30;39.52;101098.69;5078915;27;46126;-59
2023/09/07 08:12:44;;;;;;;;;13.75;11.00;;;;;25.31;39.78;101101.25;5081316;28;46681;-59
2023/09/07 08:15:10;;;;;;;;;11.25;8.25;;;;;25.36;40.02;101100.06;5081906;27;45338;-62
2023/09/07 08:17:35;;;;;;;;;11.75;11.75;;;;;25.38;39.96;101101.69;5081494;27;45570;-62
2023/09/07 08:20:01;;;;;;;;;13.75;10.50;;;;;25.40;39.53;101105.16;5081460;27;46191;-62
2023/09/07 08:22:27;;;;;;;;;12.75;11.75;;;;;25.44;39.74;101100.41;5081449;27;45270;-61
2023/09/07 08:24:54;;;;;;;;;14.50;12.25;;;;;25.43;39.55;101099.56;5081155;27;45342;-61
2023/09/07 08:27:20;;;;;;;;;11.75;11.75;;;;;25.47;40.10;101101.06;5081320;27;45239;-62
2023/09/07 08:29:48;;;;;;;;;14.00;12.50;;;;;25.53;40.14;101102.44;5079960;28;48042;-62
2023/09/07 08:32:14;;;;;;;;;9.25;8.25;;;;;25.56;39.61;101098.66;5081048;27;45346;-59
2023/09/07 08:34:40;;;;;;;;;12.25;11.75;;;;;25.56;40.11;101098.66;5081394;27;45306;-59
2023/09/07 08:37:08;;;;;;;;;13.75;11.75;;;;;25.54;39.49;101093.41;5081024;27;45624;-60
2023/09/07 08:39:34;;;;;;;;;13.75;13.00;;;;;25.61;39.62;101097.38;5080919;28;46133;-61
2023/09/07 08:42:00;;;;;;;;;11.75;11.25;;;;;25.63;39.79;101089.19;5080876;27;45519;-62
2023/09/07 08:44:26;;;;;;;;;17.75;12.75;;;;;25.69;39.37;101095.97;5081559;27;45334;-62
2023/09/07 08:46:52;;;;;;;;;10.00;8.25;;;;;25.74;40.29;101104.56;5080851;27;45583;-62
2023/09/07 08:49:23;;;;;;;;;14.00;11.75;;;;;25.78;39.55;101104.19;5080932;27;46245;-62
2023/09/07 08:51:49;;;;;;;;;11.00;11.00;;;;;25.84;39.53;101088.59;5080985;27;45330;-62
2023/09/07 08:54:14;;;;;;;;;11.75;10.75;;;;;25.88;39.84;101095.47;5081132;27;45287;-61
2023/09/07 08:56:40;;;;;;;;;12.25;12.25;;;;;25.92;39.55;101088.88;5080403;27;45610;-62
2023/09/07 08:59:05;;;;;;;;;13.50;12.00;;;;;25.98;39.40;101090.28;5080828;28;45215;-61
2023/09/07 09:01:31;;;;;;;;;12.25;11.00;;;;;26.03;39.82;101094.34;5113736;27;45266;-62
2023/09/07 09:03:57;;;;;;;;;13.00;13.00;;;;;26.09;39.61;101091.22;5080958;27;45227;-61
2023/09/07 09:06:22;;;;;;;;;12.75;11.75;;;;;26.15;39.80;101086.34;5080716;28;45271;-62
2023/09/07 09:08:53;;;;;;;;;12.00;11.50;;;;;26.20;39.43;101084.16;5080363;27;46100;-62
2023/09/07 09:11:20;;;;;;;;;11.50;11.25;;;;;26.28;39.54;101081.78;5080357;27;45210;-62
2023/09/07 09:13:46;;;;;;;;;12.75;8.25;;;;;26.35;39.90;101084.84;5080486;27;45244;-61
2023/09/07 09:16:15;;;;;;;;;10.25;10.25;;;;;26.40;39.72;101082.66;5080649;27;45344;-62
2023/09/07 09:18:55;;;;;;;;;9.00;9.00;;;;;26.44;39.94;101073.38;5080648;27;46078;-61
2023/09/07 09:21:26;;;;;;;;;13.00;10.50;;;;;26.58;39.68;101085.81;5080348;28;45243;-62
2023/09/07 09:23:53;;;;;;;;;15.75;12.50;;;;;26.67;39.93;101076.16;5080839;27;45377;-62
2023/09/07 09:26:20;;;;;;;;;13.25;9.75;;;;;26.76;39.92;101080.84;5079979;27;45500;-61
2023/09/07 09:28:46;;;;;;;;;11.50;11.50;;;;;26.84;40.00;101073.03;5080390;27;45360;-62
2023/09/07 09:31:12;;;;;;;;;13.00;10.00;;;;;26.96;39.93;101087.38;5080208;27;45181;-62
2023/09/07 09:33:49;;;;;;;;;13.25;12.25;;;;;27.08;39.68;101086.44;5080686;27;45491;-62
2023/09/07 09:36:14;;;;;;;;;12.50;11.25;;;;;27.22;39.29;101082.63;5112772;27;45413;-62
2023/09/07 09:38:40;;;;;;;;;13.25;11.00;;;;;27.37;39.54;101085.94;5080351;27;45475;-62
2023/09/07 09:41:06;;;;;;;;;13.00;11.00;;;;;27.50;39.69;101071.50;5079853;27;45370;-61
2023/09/07 09:43:32;;;;;;;;;10.00;10.00;;;;;27.73;40.20;101086.69;5080644;27;45414;-61
2023/09/07 09:45:59;;;;;;;;;10.75;10.00;;;;;27.97;39.71;101090.19;5079925;27;45322;-62
2023/09/07 09:48:27;;;;;;;;;11.00;9.75;;;;;28.21;39.94;101090.00;5085251;27;45192;-61
2023/09/07 09:50:52;;;;;;;;;12.50;10.75;;;;;28.47;39.66;101086.97;5086793;28;45271;-59
2023/09/07 09:53:20;;;;;;;;;9.75;9.75;;;;;28.75;39.90;101087.34;5086883;27;45303;-59
2023/09/07 09:55:50;;;;;;;;;13.75;12.25;;;;;29.04;39.64;101079.38;5086303;27;45570;-62
2023/09/07 09:58:16;;;;;;;;;10.75;9.50;;;;;29.32;39.49;101074.28;5086848;27;45392;-62
2023/09/07 10:00:48;;;;;;;;;10.75;10.00;;;;;29.59;39.73;101079.06;5086533;27;45282;-62
2023/09/07 10:03:28;;;;;;;;;9.25;9.25;;;;;29.84;39.54;101083.13;5086741;27;45238;-63
2023/09/07 10:05:54;;;;;;;;;13.75;12.25;;;;;30.08;39.14;101083.78;5086774;27;45421;-63
2023/09/07 10:08:22;;;;;;;;;12.00;11.25;;;;;30.28;38.61;101088.19;5086252;28;45864;-62
2023/09/07 10:10:49;;;;;;;;;12.00;10.50;;;;;30.48;39.07;101090.94;5086373;27;45430;-63
2023/09/07 10:13:15;;;;;;;;;13.75;11.25;;;;;30.64;39.02;101091.19;5086723;27;45122;-62
2023/09/07 10:15:41;;;;;;;;;11.50;11.25;;;;;30.79;38.49;101083.47;5086743;27;45238;-62
2023/09/07 10:18:10;;;;;;;;;13.00;13.00;;;;;30.89;38.40;101072.59;5086255;27;45299;-63
2023/09/07 10:20:49;;;;;;;;;10.25;10.25;;;;;31.12;38.35;101077.72;5085932;27;45385;-63
2023/09/07 10:23:15;;;;;;;;;14.50;12.50;;;;;31.25;37.96;101077.38;5084622;28;45272;-63
2023/09/07 10:25:40;;;;;;;;;12.75;10.75;;;;;31.40;38.01;101075.00;5085412;27;45572;-62
2023/09/07 10:28:05;;;;;;;;;12.50;11.00;;;;;31.59;38.09;101080.31;5085588;27;45402;-61
2023/09/07 10:30:32;;;;;;;;;11.75;10.25;;;;;31.77;37.88;101076.81;5085654;27;45654;-61
2023/09/07 10:32:58;;;;;;;;;13.50;11.00;;;;;31.92;37.60;101064.44;5085922;27;45246;-62
2023/09/07 10:35:25;;;;;;;;;11.25;11.25;;;;;32.19;37.64;101072.69;5085570;27;45397;-61
2023/09/07 10:37:52;;;;;;;;;13.50;10.25;;;;;32.42;37.11;101076.63;5081081;28;46433;-62
2023/09/07 10:40:23;;;;;;;;;13.00;12.00;;;;;32.67;37.53;101076.00;5086025;28;45326;-63
2023/09/07 10:42:49;;;;;;;;;14.25;10.75;;;;;32.94;37.54;101072.25;5085541;28;45287;-63
2023/09/07 10:45:16;;;;;;;;;11.00;11.00;;;;;33.20;37.08;101079.56;5085357;27;45327;-63
2023/09/07 10:47:45;;;;;;;;;13.00;12.00;;;;;33.46;36.88;101075.94;5084828;27;45368;-63
2023/09/07 10:50:14;;;;;;;;;8.00;8.00;;;;;33.74;36.77;101073.00;5085435;27;46544;-63
2023/09/07 10:52:41;;;;;;;;;9.50;9.50;;;;;33.99;36.54;101069.31;5085011;28;45339;-63
2023/09/07 10:55:10;;;;;;;;;11.25;11.00;;;;;34.27;36.63;101082.63;5085491;27;45406;-63
2023/09/07 10:57:42;;;;;;;;;10.00;9.50;;;;;34.55;36.32;101070.56;5085620;27;47210;-63
2023/09/07 11:00:10;;;;;;;;;11.00;10.00;;;;;34.81;36.20;101065.75;5081586;27;45295;-63
2023/09/07 11:02:37;;;;;;;;;12.00;12.00;;;;;35.08;36.12;101063.66;5082685;28;45242;-63
2023/09/07 11:05:02;;;;;;;;;13.25;12.25;;;;;35.36;35.92;101062.34;5115472;27;45493;-63
2023/09/07 11:07:28;;;;;;;;;10.75;10.50;;;;;35.64;35.86;101062.75;5082457;27;46128;-63
2023/09/07 11:09:54;;;;;;;;;11.00;11.00;;;;;35.92;35.29;101063.13;5081919;27;45332;-63
2023/09/07 11:12:21;;;;;;;;;10.50;10.50;;;;;36.21;35.50;101060.69;5081333;28;45321;-63